Time;durP1;ratioP1;P1;durP2;ratioP2;P2;SDS_P1;SDS_P2;PMS_P1;PMS_P2;Temp;Humidity;BMP_temperature;BMP_pressure;BME280_temperature;BME280_humidity;BME280_pressure;Samples;Min_cycle;Max_cycle;Signal;HPM_P1;HPM_P2
2023/10/13 00:01:22;;;;;;;3.57;2.53;;;;;;;;;;5073279;28;20266;-78
2023/10/13 00:03:49;;;;;;;4.17;2.60;;;;;;;;;;5073340;28;20204;-79
2023/10/13 00:06:16;;;;;;;5.77;2.73;;;;;;;;;;5072855;28;20573;-78
2023/10/13 00:08:45;;;;;;;4.60;3.20;;;;;;;;;;5072756;28;20212;-78
2023/10/13 00:11:15;;;;;;;3.13;2.83;;;;;;;;;;5073168;28;20197;-79
2023/10/13 00:13:50;;;;;;;4.43;2.60;;;;;;;;;;5072950;28;20208;-78
2023/10/13 00:16:21;;;;;;;3.60;2.57;;;;;;;;;;5072682;28;20589;-79
2023/10/13 00:18:48;;;;;;;3.13;2.80;;;;;;;;;;5072581;28;20228;-78
2023/10/13 00:21:20;;;;;;;3.07;2.27;;;;;;;;;;5073268;28;20211;-78
2023/10/13 00:23:53;;;;;;;3.93;2.90;;;;;;;;;;5072417;28;20210;-78
2023/10/13 00:26:24;;;;;;;3.07;2.77;;;;;;;;;;5072436;28;20296;-78
2023/10/13 00:28:58;;;;;;;7.43;3.07;;;;;;;;;;5072416;28;20745;-78
2023/10/13 00:31:31;;;;;;;3.17;2.90;;;;;;;;;;5072631;28;20694;-78
2023/10/13 00:34:09;;;;;;;7.67;3.00;;;;;;;;;;5072424;28;20204;-78
2023/10/13 00:36:36;;;;;;;4.53;2.37;;;;;;;;;;5072890;28;20210;-78
2023/10/13 00:39:05;;;;;;;3.13;2.90;;;;;;;;;;5072651;28;20212;-78
2023/10/13 00:41:50;;;;;;;3.73;2.83;;;;;;;;;;5072114;28;20690;-78
2023/10/13 00:44:25;;;;;;;3.53;2.57;;;;;;;;;;5072345;28;20325;-78
2023/10/13 00:46:55;;;;;;;4.10;3.23;;;;;;;;;;5048279;28;20206;-78
2023/10/13 00:49:22;;;;;;;3.50;2.93;;;;;;;;;;5072109;28;20237;-77
2023/10/13 00:51:49;;;;;;;5.33;2.67;;;;;;;;;;5072519;28;20213;-77
2023/10/13 00:54:18;;;;;;;3.87;2.47;;;;;;;;;;5071387;28;20208;-78
2023/10/13 00:56:49;;;;;;;3.73;2.47;;;;;;;;;;5063153;28;20217;-78
2023/10/13 00:59:17;;;;;;;3.93;2.90;;;;;;;;;;5068525;28;20205;-78
2023/10/13 01:01:44;;;;;;;4.07;2.83;;;;;;;;;;5072288;28;20219;-78
2023/10/13 01:04:12;;;;;;;3.13;2.83;;;;;;;;;;5072419;28;20201;-78
2023/10/13 01:06:39;;;;;;;2.80;2.60;;;;;;;;;;5071941;28;20240;-78
2023/10/13 01:09:13;;;;;;;3.23;2.93;;;;;;;;;;5071614;28;20209;-78
2023/10/13 01:11:40;;;;;;;3.90;2.80;;;;;;;;;;5071723;28;20198;-78
2023/10/13 01:14:07;;;;;;;2.77;2.57;;;;;;;;;;5071576;28;20203;-78
2023/10/13 01:16:35;;;;;;;4.90;2.90;;;;;;;;;;5071568;28;20209;-78
2023/10/13 01:19:05;;;;;;;3.40;3.07;;;;;;;;;;5071366;28;20197;-78
2023/10/13 01:21:32;;;;;;;4.47;2.70;;;;;;;;;;5071742;28;20324;-78
2023/10/13 01:24:01;;;;;;;2.77;2.50;;;;;;;;;;5072341;28;20208;-78
2023/10/13 01:26:27;;;;;;;3.50;3.07;;;;;;;;;;5071399;28;20201;-78
2023/10/13 01:28:58;;;;;;;3.43;3.00;;;;;;;;;;5071127;28;20251;-78
2023/10/13 01:31:26;;;;;;;5.43;2.90;;;;;;;;;;5071320;28;20216;-78
2023/10/13 01:33:54;;;;;;;3.93;2.60;;;;;;;;;;5071517;28;20193;-78
2023/10/13 01:36:21;;;;;;;5.07;3.03;;;;;;;;;;5070971;28;20370;-78
2023/10/13 01:38:49;;;;;;;3.10;2.80;;;;;;;;;;5071352;28;20203;-78
2023/10/13 01:41:17;;;;;;;4.63;2.67;;;;;;;;;;5070261;28;20319;-78
2023/10/13 01:43:44;;;;;;;6.50;2.93;;;;;;;;;;5071564;28;20680;-78
2023/10/13 01:46:13;;;;;;;5.13;3.37;;;;;;;;;;5071081;28;20250;-78
2023/10/13 01:48:41;;;;;;;3.87;3.27;;;;;;;;;;5070604;28;20201;-78
2023/10/13 01:51:09;;;;;;;3.10;2.80;;;;;;;;;;5071044;28;20223;-78
2023/10/13 01:53:37;;;;;;;3.30;2.97;;;;;;;;;;5071201;28;20209;-78
2023/10/13 01:56:06;;;;;;;3.20;2.53;;;;;;;;;;5071023;28;20216;-78
2023/10/13 01:58:34;;;;;;;3.10;2.80;;;;;;;;;;5062777;28;20205;-78
2023/10/13 02:01:00;;;;;;;3.50;2.47;;;;;;;;;;5068362;28;20252;-78
2023/10/13 02:03:29;;;;;;;2.87;2.57;;;;;;;;;;5064870;28;20253;-77
2023/10/13 02:05:58;;;;;;;5.07;2.37;;;;;;;;;;5070693;28;20270;-77
2023/10/13 02:08:25;;;;;;;2.77;2.57;;;;;;;;;;5070972;28;20201;-77
2023/10/13 02:10:51;;;;;;;4.37;3.10;;;;;;;;;;5070607;28;20301;-78
2023/10/13 02:13:19;;;;;;;3.33;2.40;;;;;;;;;;5053441;28;20674;-77
2023/10/13 02:15:47;;;;;;;4.90;2.83;;;;;;;;;;5054268;28;20231;-78
2023/10/13 02:18:20;;;;;;;3.40;2.77;;;;;;;;;;5051438;28;20672;-78
2023/10/13 02:20:54;;;;;;;4.73;2.93;;;;;;;;;;5053444;28;20232;-77
2023/10/13 02:23:21;;;;;;;5.20;2.70;;;;;;;;;;5052323;28;20680;-77
2023/10/13 02:25:46;;;;;;;9.67;2.80;;;;;;;;;;5058670;28;20205;-77
2023/10/13 02:28:21;;;;;;;4.83;2.47;;;;;;;;;;5060025;28;20212;-77
2023/10/13 02:30:50;;;;;;;3.10;2.60;;;;;;;;;;5060629;28;20210;-77
2023/10/13 02:33:21;;;;;;;4.30;2.40;;;;;;;;;;5058879;28;20742;-77
2023/10/13 02:35:53;;;;;;;3.40;2.13;;;;;;;;;;5057384;28;20213;-77
2023/10/13 02:38:27;;;;;;;2.33;2.13;;;;;;;;;;5067857;28;20255;-77
2023/10/13 02:40:55;;;;;;;3.57;2.40;;;;;;;;;;5047983;28;20225;-77
2023/10/13 02:43:22;;;;;;;3.80;1.90;;;;;;;;;;5061745;28;20297;-77
2023/10/13 02:45:59;;;;;;;4.67;2.97;;;;;;;;;;5056328;28;20201;-77
2023/10/13 02:48:26;;;;;;;6.97;2.37;;;;;;;;;;5053640;28;20719;-77
2023/10/13 02:50:57;;;;;;;4.83;1.90;;;;;;;;;;5057513;28;20229;-77
2023/10/13 02:53:23;;;;;;;3.23;2.50;;;;;;;;;;5066460;28;20234;-77
2023/10/13 02:55:51;;;;;;;3.23;2.93;;;;;;;;;;5053571;28;20644;-77
2023/10/13 02:58:17;;;;;;;3.30;2.83;;;;;;;;;;5047367;28;20202;-77
2023/10/13 03:00:45;;;;;;;3.30;2.50;;;;;;;;;;5067966;28;20287;-78
2023/10/13 03:03:18;;;;;;;6.50;3.40;;;;;;;;;;5059850;28;20574;-78
2023/10/13 03:05:46;;;;;;;6.77;2.97;;;;;;;;;;5074373;28;20212;-78
2023/10/13 03:08:25;;;;;;;3.07;2.57;;;;;;;;;;5073805;28;20208;-78
2023/10/13 03:10:54;;;;;;;2.70;2.50;;;;;;;;;;5074740;28;20224;-78
2023/10/13 03:13:21;;;;;;;3.67;3.13;;;;;;;;;;5073672;28;20210;-78
2023/10/13 03:15:47;;;;;;;12.00;7.13;;;;;;;;;;5073703;28;20202;-78
2023/10/13 03:18:18;;;;;;;9.27;7.03;;;;;;;;;;5073639;28;20289;-78
2023/10/13 03:20:50;;;;;;;4.70;4.17;;;;;;;;;;5073833;28;20770;-79
2023/10/13 03:23:16;;;;;;;4.37;3.93;;;;;;;;;;5059471;28;20205;-78
2023/10/13 03:25:43;;;;;;;4.93;3.80;;;;;;;;;;5063531;28;20211;-78
2023/10/13 03:28:13;;;;;;;4.90;4.50;;;;;;;;;;5070209;28;20197;-78
2023/10/13 03:30:41;;;;;;;6.00;4.13;;;;;;;;;;5074132;28;20741;-78
2023/10/13 03:33:11;;;;;;;4.07;3.40;;;;;;;;;;5073533;28;20297;-78
2023/10/13 03:35:41;;;;;;;4.70;4.30;;;;;;;;;;5073380;28;20201;-78
2023/10/13 03:38:16;;;;;;;4.43;4.03;;;;;;;;;;5066706;28;20229;-78
2023/10/13 03:40:48;;;;;;;4.50;3.63;;;;;;;;;;5073267;28;20714;-78
2023/10/13 03:43:16;;;;;;;4.13;3.40;;;;;;;;;;5073665;28;20285;-79
2023/10/13 03:45:47;;;;;;;4.67;3.00;;;;;;;;;;5073905;28;20291;-80
2023/10/13 03:48:28;;;;;;;3.30;3.00;;;;;;;;;;5073469;28;20676;-90
2023/10/13 03:51:06;;;;;;;7.30;3.17;;;;;;;;;;5072787;28;20209;-85
2023/10/13 03:53:50;;;;;;;2.70;2.50;;;;;;;;;;5054172;28;20206;-86
2023/10/13 03:56:26;;;;;;;3.20;2.90;;;;;;;;;;5067035;28;20657;-86
2023/10/13 03:58:53;;;;;;;2.87;2.67;;;;;;;;;;5054426;28;20219;-88
2023/10/13 04:01:31;;;;;;;6.17;2.60;;;;;;;;;;5047594;28;20228;-86
2023/10/13 04:04:03;;;;;;;4.53;2.80;;;;;;;;;;5071449;28;20215;-87
2023/10/13 04:15:15;;;;;;;4.00;2.80;;;;;;;;;;5073088;28;20338;-86
2023/10/13 04:17:45;;;;;;;5.63;3.30;;;;;;;;;;5049945;28;20262;-86
2023/10/13 04:26:05;;;;;;;3.53;3.20;;;;;;;;;;5048319;28;20215;-86
2023/10/13 04:28:35;;;;;;;10.13;4.97;;;;;;;;;;5055898;28;20204;-86
2023/10/13 04:31:11;;;;;;;8.63;6.07;;;;;;;;;;5065501;28;20206;-86
2023/10/13 04:33:51;;;;;;;6.43;4.70;;;;;;;;;;5060489;28;20208;-87
2023/10/13 04:36:21;;;;;;;5.10;3.70;;;;;;;;;;5071651;28;20205;-87
2023/10/13 04:38:56;;;;;;;5.73;3.80;;;;;;;;;;5053672;28;20213;-86
2023/10/13 04:41:31;;;;;;;3.80;3.50;;;;;;;;;;5055517;28;20328;-86
2023/10/13 04:44:04;;;;;;;6.07;3.80;;;;;;;;;;5052145;28;20233;-86
2023/10/13 04:46:40;;;;;;;3.60;3.20;;;;;;;;;;5038002;28;20653;-86
2023/10/13 04:49:28;;;;;;;4.87;3.20;;;;;;;;;;5066270;28;20244;-86
2023/10/13 04:52:12;;;;;;;8.63;3.83;;;;;;;;;;5051426;28;20211;-86
2023/10/13 04:54:49;;;;;;;3.87;3.43;;;;;;;;;;5059480;28;20201;-87
2023/10/13 04:57:25;;;;;;;3.87;3.17;;;;;;;;;;5073129;28;20292;-87
2023/10/13 05:02:55;;;;;;;2.73;2.53;;;;;;;;;;5053758;28;20222;-86
2023/10/13 05:47:01;;;;;;;7.00;3.47;;;;;;;;;;5038993;28;20644;-86
2023/10/13 05:49:49;;;;;;;9.77;3.37;;;;;;;;;;5069160;28;20228;-86
2023/10/13 06:30:56;;;;;;;4.30;3.10;;;;;;;;;;5059891;28;20208;-87
2023/10/13 06:33:28;;;;;;;8.10;3.10;;;;;;;;;;5067307;28;20216;-86
2023/10/13 06:35:57;;;;;;;6.87;3.50;;;;;;;;;;5051255;28;20210;-86
2023/10/13 06:38:27;;;;;;;4.53;3.10;;;;;;;;;;5069533;28;20244;-86
2023/10/13 06:40:53;;;;;;;4.40;3.10;;;;;;;;;;5070817;28;20230;-85
2023/10/13 06:43:23;;;;;;;3.30;2.90;;;;;;;;;;5065416;28;20219;-84
2023/10/13 06:46:00;;;;;;;11.77;3.43;;;;;;;;;;5063788;28;20684;-84
2023/10/13 06:48:32;;;;;;;7.90;3.80;;;;;;;;;;5070524;28;20643;-83
2023/10/13 06:51:06;;;;;;;11.10;3.17;;;;;;;;;;5070816;28;20200;-84
2023/10/13 06:53:37;;;;;;;6.43;3.27;;;;;;;;;;5070585;28;20205;-83
2023/10/13 06:56:09;;;;;;;7.87;3.67;;;;;;;;;;5054600;28;20226;-84
2023/10/13 06:58:35;;;;;;;3.53;2.83;;;;;;;;;;5061579;28;20700;-84
2023/10/13 07:01:14;;;;;;;3.17;2.70;;;;;;;;;;5053020;28;20237;-84
2023/10/13 07:03:48;;;;;;;6.53;4.23;;;;;;;;;;5051416;28;20202;-83
2023/10/13 07:06:19;;;;;;;3.90;2.80;;;;;;;;;;5038310;28;20209;-85
2023/10/13 07:08:51;;;;;;;4.53;3.40;;;;;;;;;;5065020;28;20200;-83
2023/10/13 07:11:22;;;;;;;3.87;3.00;;;;;;;;;;5070389;28;20259;-83
2023/10/13 07:13:52;;;;;;;4.67;3.63;;;;;;;;;;5054581;28;21257;-84
2023/10/13 07:16:19;;;;;;;3.27;2.97;;;;;;;;;;5061198;28;20209;-84
2023/10/13 07:18:52;;;;;;;8.10;3.50;;;;;;;;;;5057306;28;20753;-83
2023/10/13 07:21:24;;;;;;;9.37;3.87;;;;;;;;;;5059325;28;20302;-83
2023/10/13 07:24:00;;;;;;;6.40;3.60;;;;;;;;;;5064202;28;20292;-84
2023/10/13 07:26:28;;;;;;;3.60;3.17;;;;;;;;;;5063557;28;20251;-84
2023/10/13 07:28:55;;;;;;;5.63;3.00;;;;;;;;;;5070683;28;20209;-84
2023/10/13 07:31:26;;;;;;;13.23;3.23;;;;;;;;;;5070049;28;20733;-84
2023/10/13 07:34:03;;;;;;;5.47;3.37;;;;;;;;;;5071042;28;20207;-84
2023/10/13 07:36:34;;;;;;;5.00;3.43;;;;;;;;;;5067054;28;20212;-83
2023/10/13 07:39:20;;;;;;;3.43;2.60;;;;;;;;;;5052239;28;20214;-84
2023/10/13 07:41:51;;;;;;;4.23;2.93;;;;;;;;;;5048433;28;20714;-86
2023/10/13 07:44:19;;;;;;;3.00;2.70;;;;;;;;;;5060748;28;20209;-84
2023/10/13 07:46:52;;;;;;;4.30;3.00;;;;;;;;;;5066490;28;20217;-86
2023/10/13 07:49:21;;;;;;;7.77;2.80;;;;;;;;;;5055572;28;20230;-84
2023/10/13 07:51:49;;;;;;;5.07;2.77;;;;;;;;;;5065558;28;20270;-84
2023/10/13 07:54:21;;;;;;;4.53;3.00;;;;;;;;;;5055974;28;20216;-84
2023/10/13 07:56:48;;;;;;;4.67;2.77;;;;;;;;;;5064780;28;20585;-84
2023/10/13 07:59:16;;;;;;;4.10;2.93;;;;;;;;;;5067397;28;20213;-84
2023/10/13 08:01:44;;;;;;;3.27;2.77;;;;;;;;;;5054116;28;20235;-83
2023/10/13 08:04:12;;;;;;;4.07;3.17;;;;;;;;;;5067086;28;20607;-83
2023/10/13 08:06:43;;;;;;;6.13;3.20;;;;;;;;;;5064410;28;20258;-83
2023/10/13 08:09:29;;;;;;;3.93;2.60;;;;;;;;;;5059961;28;20205;-85
2023/10/13 08:11:56;;;;;;;3.63;2.70;;;;;;;;;;5072692;28;20671;-83
2023/10/13 08:14:28;;;;;;;11.30;3.67;;;;;;;;;;5061826;28;20201;-84
2023/10/13 08:16:59;;;;;;;5.10;3.00;;;;;;;;;;5073768;28;20200;-83
2023/10/13 08:19:28;;;;;;;4.93;3.10;;;;;;;;;;5063459;28;20663;-84
2023/10/13 08:22:14;;;;;;;7.23;2.77;;;;;;;;;;5066796;28;20229;-84
2023/10/13 08:27:35;;;;;;;10.17;3.17;;;;;;;;;;5040925;28;20259;-84
2023/10/13 08:30:26;;;;;;;6.37;3.40;;;;;;;;;;5053369;28;20205;-84
2023/10/13 08:32:56;;;;;;;3.63;2.67;;;;;;;;;;5066294;28;20209;-84
2023/10/13 08:35:33;;;;;;;2.93;2.60;;;;;;;;;;5047791;28;20207;-84
2023/10/13 08:38:13;;;;;;;8.33;2.90;;;;;;;;;;5072417;28;20205;-83
2023/10/13 08:41:25;;;;;;;4.27;3.27;;;;;;;;;;5073069;28;20270;-84
2023/10/13 08:43:45;;;;;;;7.03;2.83;;;;;;;;;;5072565;28;20205;-83
2023/10/13 08:46:25;;;;;;;6.30;3.30;;;;;;;;;;5056639;28;20234;-84
2023/10/13 08:49:15;;;;;;;7.20;3.23;;;;;;;;;;5063860;28;20232;-83
2023/10/13 08:51:48;;;;;;;10.40;3.40;;;;;;;;;;5065076;28;20614;-83
2023/10/13 08:54:20;;;;;;;7.90;3.77;;;;;;;;;;5067860;28;20201;-84
2023/10/13 08:56:55;;;;;;;4.30;3.00;;;;;;;;;;5073106;28;20286;-84
2023/10/13 08:59:33;;;;;;;5.93;3.23;;;;;;;;;;5055777;28;20212;-83
2023/10/13 09:02:15;;;;;;;3.60;2.97;;;;;;;;;;5064368;28;20315;-83
2023/10/13 09:04:44;;;;;;;8.27;3.20;;;;;;;;;;5064895;28;20206;-83
2023/10/13 09:07:15;;;;;;;4.07;2.60;;;;;;;;;;5054380;28;20210;-83
2023/10/13 09:13:00;;;;;;;4.73;2.80;;;;;;;;;;5061344;28;20580;-83
2023/10/13 09:15:59;;;;;;;4.23;2.67;;;;;;;;;;5072042;28;20692;-83
2023/10/13 09:18:41;;;;;;;4.43;3.00;;;;;;;;;;5059726;28;20210;-83
2023/10/13 09:21:29;;;;;;;10.27;2.90;;;;;;;;;;5052452;28;20205;-84
2023/10/13 09:24:16;;;;;;;6.37;3.83;;;;;;;;;;5071337;28;20205;-82
2023/10/13 09:26:47;;;;;;;9.27;3.00;;;;;;;;;;5056567;28;20684;-82
2023/10/13 09:29:19;;;;;;;4.13;3.13;;;;;;;;;;5051953;28;20286;-83
2023/10/13 09:31:50;;;;;;;7.80;3.63;;;;;;;;;;5052089;28;20241;-83
2023/10/13 09:34:21;;;;;;;3.97;2.80;;;;;;;;;;5063583;28;20243;-82
2023/10/13 09:36:55;;;;;;;5.90;3.30;;;;;;;;;;5067064;28;20632;-82
2023/10/13 09:39:29;;;;;;;5.43;3.00;;;;;;;;;;5051780;28;20280;-83
2023/10/13 09:41:59;;;;;;;9.30;3.03;;;;;;;;;;5045874;28;20227;-83
2023/10/13 09:44:30;;;;;;;6.97;3.10;;;;;;;;;;5058492;28;20255;-82
2023/10/13 09:47:07;;;;;;;9.30;4.67;;;;;;;;;;5071515;28;20219;-82
2023/10/13 09:49:44;;;;;;;19.00;3.70;;;;;;;;;;5058305;28;20572;-82
2023/10/13 09:52:19;;;;;;;5.67;3.43;;;;;;;;;;5059806;28;20210;-82
2023/10/13 09:54:59;;;;;;;7.20;3.70;;;;;;;;;;5070633;28;20275;-82
2023/10/13 09:57:34;;;;;;;15.70;3.80;;;;;;;;;;5070182;28;20205;-82
2023/10/13 10:00:07;;;;;;;8.80;5.13;;;;;;;;;;5061130;28;20215;-82
2023/10/13 10:02:40;;;;;;;10.50;4.20;;;;;;;;;;5070714;28;20262;-82
2023/10/13 10:05:21;;;;;;;5.13;3.60;;;;;;;;;;5060087;28;20213;-82
2023/10/13 10:07:56;;;;;;;8.10;3.67;;;;;;;;;;5051449;28;20237;-82
2023/10/13 10:10:23;;;;;;;6.87;3.97;;;;;;;;;;5065972;28;20659;-83
2023/10/13 10:12:55;;;;;;;4.93;3.43;;;;;;;;;;5071643;28;20220;-81
2023/10/13 10:15:33;;;;;;;7.37;3.63;;;;;;;;;;5058064;28;20634;-82
2023/10/13 10:18:00;;;;;;;6.03;3.90;;;;;;;;;;5060578;28;20304;-82
2023/10/13 10:20:39;;;;;;;5.43;2.87;;;;;;;;;;5069229;28;20586;-82
2023/10/13 10:23:09;;;;;;;8.17;4.13;;;;;;;;;;5070934;28;20282;-82
2023/10/13 10:25:37;;;;;;;4.87;3.60;;;;;;;;;;5038737;28;20213;-81
2023/10/13 10:28:06;;;;;;;10.53;4.10;;;;;;;;;;5051328;28;20205;-82
2023/10/13 10:30:38;;;;;;;7.33;3.60;;;;;;;;;;5058735;28;20213;-81
2023/10/13 10:33:11;;;;;;;8.50;3.50;;;;;;;;;;5057963;28;20232;-82
2023/10/13 10:35:38;;;;;;;5.43;3.33;;;;;;;;;;5071242;28;20204;-82
2023/10/13 10:38:15;;;;;;;7.20;3.97;;;;;;;;;;5057458;28;20196;-82
2023/10/13 10:40:57;;;;;;;9.18;3.70;;;;;;;;;;5059572;28;20205;-82
2023/10/13 10:43:41;;;;;;;7.47;3.30;;;;;;;;;;5057558;28;20786;-83
2023/10/13 10:46:10;;;;;;;15.15;4.43;;;;;;;;;;5070346;28;20737;-82
2023/10/13 10:48:38;;;;;;;7.07;2.80;;;;;;;;;;5069516;28;20201;-82
2023/10/13 10:51:13;;;;;;;5.07;3.22;;;;;;;;;;5068383;28;20211;-82
2023/10/13 10:53:44;;;;;;;6.60;3.90;;;;;;;;;;5061496;28;20213;-82
2023/10/13 10:56:22;;;;;;;6.90;3.22;;;;;;;;;;5056778;28;20228;-81
2023/10/13 10:58:54;;;;;;;6.15;3.03;;;;;;;;;;5070905;28;20204;-81
2023/10/13 11:01:22;;;;;;;8.17;3.57;;;;;;;;;;5050963;28;20209;-82
2023/10/13 11:04:07;;;;;;;7.60;3.63;;;;;;;;;;5063723;28;20646;-82
2023/10/13 11:06:38;;;;;;;13.40;3.70;;;;;;;;;;5050844;28;20293;-81
2023/10/13 11:09:18;;;;;;;12.90;3.47;;;;;;;;;;5063879;28;20208;-81
2023/10/13 11:11:46;;;;;;;8.32;4.43;;;;;;;;;;5050778;28;20210;-81
2023/10/13 11:14:23;;;;;;;7.80;3.42;;;;;;;;;;5052434;28;20206;-81
2023/10/13 11:16:54;;;;;;;7.13;4.20;;;;;;;;;;5068929;28;20234;-82
2023/10/13 11:19:25;;;;;;;6.75;3.17;;;;;;;;;;5074457;28;20204;-82
2023/10/13 11:21:54;;;;;;;7.15;3.10;;;;;;;;;;5074067;28;20224;-81
2023/10/13 11:24:21;;;;;;;5.30;2.97;;;;;;;;;;5065729;28;20206;-81
2023/10/13 11:26:52;;;;;;;6.55;4.65;;;;;;;;;;5069851;28;20201;-82
2023/10/13 11:29:19;;;;;;;4.18;3.30;;;;;;;;;;5074600;28;20251;-82
2023/10/13 11:31:53;;;;;;;4.20;3.80;;;;;;;;;;5061401;28;20353;-81
2023/10/13 11:34:20;;;;;;;9.45;3.20;;;;;;;;;;5074101;28;20223;-82
2023/10/13 11:36:47;;;;;;;5.87;3.83;;;;;;;;;;5055600;28;20271;-81
2023/10/13 11:39:18;;;;;;;4.97;3.87;;;;;;;;;;5065865;28;20205;-81
2023/10/13 11:41:53;;;;;;;6.47;3.30;;;;;;;;;;5068382;28;20213;-82
2023/10/13 11:44:31;;;;;;;6.27;3.93;;;;;;;;;;5054241;28;20217;-81
2023/10/13 11:47:32;;;;;;;4.10;3.40;;;;;;;;;;5054060;28;20205;-82
2023/10/13 11:49:58;;;;;;;10.83;4.23;;;;;;;;;;5059757;28;20244;-82
2023/10/13 11:52:26;;;;;;;7.40;3.90;;;;;;;;;;5060831;28;20272;-81
2023/10/13 11:54:53;;;;;;;5.90;3.37;;;;;;;;;;5047834;28;20201;-81
2023/10/13 11:57:21;;;;;;;10.57;3.00;;;;;;;;;;5059669;28;20206;-81
2023/10/13 11:59:55;;;;;;;6.03;2.93;;;;;;;;;;5062050;28;20219;-81
2023/10/13 12:05:13;;;;;;;3.77;3.13;;;;;;;;;;5062507;28;20216;-81
2023/10/13 12:10:39;;;;;;;14.10;5.20;;;;;;;;;;5067182;28;20330;-81
2023/10/13 12:13:10;;;;;;;5.67;3.17;;;;;;;;;;5073157;28;20258;-81
2023/10/13 12:15:51;;;;;;;6.20;3.43;;;;;;;;;;5056218;28;20194;-80
2023/10/13 12:18:22;;;;;;;5.13;3.30;;;;;;;;;;5066524;28;20288;-80
2023/10/13 12:20:49;;;;;;;4.23;2.90;;;;;;;;;;5073540;28;20283;-81
2023/10/13 12:23:17;;;;;;;4.80;3.20;;;;;;;;;;5072734;28;20237;-82
2023/10/13 12:28:28;;;;;;;8.10;3.50;;;;;;;;;;5066456;28;20220;-82
2023/10/13 12:31:07;;;;;;;6.07;3.67;;;;;;;;;;5062807;28;20284;-81
2023/10/13 12:33:40;;;;;;;3.63;3.07;;;;;;;;;;5073166;28;20197;-81
2023/10/13 12:36:09;;;;;;;9.23;4.07;;;;;;;;;;5073127;28;20201;-82
2023/10/13 12:49:58;;;;;;;5.80;3.03;;;;;;;;;;5073083;28;20526;-81
2023/10/13 12:52:31;;;;;;;6.43;3.00;;;;;;;;;;5072648;28;20207;-81
2023/10/13 12:55:09;;;;;;;5.43;3.73;;;;;;;;;;5041033;28;20206;-81
2023/10/13 12:57:42;;;;;;;9.32;3.58;;;;;;;;;;5068515;28;20209;-81
2023/10/13 13:00:32;;;;;;;4.40;3.27;;;;;;;;;;5062253;28;20252;-81
2023/10/13 13:03:00;;;;;;;7.27;3.77;;;;;;;;;;5039613;28;20221;-83
2023/10/13 13:05:31;;;;;;;9.57;3.27;;;;;;;;;;5066194;28;20215;-82
2023/10/13 13:07:58;;;;;;;5.70;3.50;;;;;;;;;;5060596;28;20225;-81
2023/10/13 13:10:34;;;;;;;9.43;3.57;;;;;;;;;;5072612;28;20209;-83
2023/10/13 13:13:03;;;;;;;7.53;3.03;;;;;;;;;;5062869;28;20208;-82
2023/10/13 13:15:30;;;;;;;9.27;3.20;;;;;;;;;;5068922;28;20284;-82
2023/10/13 13:17:58;;;;;;;4.13;2.80;;;;;;;;;;5072134;28;20205;-81
2023/10/13 13:20:30;;;;;;;8.57;3.47;;;;;;;;;;5071759;28;20250;-81
2023/10/13 13:23:02;;;;;;;13.67;3.90;;;;;;;;;;5072029;28;20236;-82
2023/10/13 13:25:32;;;;;;;10.03;3.77;;;;;;;;;;5066698;28;20210;-81
2023/10/13 13:28:04;;;;;;;8.03;3.63;;;;;;;;;;5064381;28;20733;-81
2023/10/13 13:30:34;;;;;;;9.10;4.87;;;;;;;;;;5065048;28;20277;-81
2023/10/13 13:33:03;;;;;;;9.23;3.27;;;;;;;;;;5065305;28;20212;-81
2023/10/13 13:35:34;;;;;;;15.07;3.83;;;;;;;;;;5059284;28;20248;-81
2023/10/13 13:38:09;;;;;;;9.87;4.17;;;;;;;;;;5071146;28;20657;-81
2023/10/13 13:40:38;;;;;;;12.57;3.57;;;;;;;;;;5062543;28;20259;-81
2023/10/13 13:43:05;;;;;;;9.47;3.63;;;;;;;;;;5065147;28;20255;-81
2023/10/13 13:45:34;;;;;;;13.63;3.97;;;;;;;;;;5051780;28;20251;-81
2023/10/13 13:48:07;;;;;;;6.07;3.70;;;;;;;;;;5051277;28;20704;-81
2023/10/13 13:50:39;;;;;;;14.70;5.17;;;;;;;;;;5063369;28;20228;-81
2023/10/13 13:53:09;;;;;;;11.07;5.03;;;;;;;;;;5071043;28;20197;-81
2023/10/13 13:55:39;;;;;;;11.73;3.90;;;;;;;;;;5071241;28;20197;-81
2023/10/13 13:58:07;;;;;;;8.27;3.53;;;;;;;;;;5045867;28;20205;-81
2023/10/13 14:00:38;;;;;;;4.00;2.97;;;;;;;;;;5056862;28;20208;-81
2023/10/13 14:03:05;;;;;;;7.67;3.27;;;;;;;;;;5059117;28;20216;-81
2023/10/13 14:05:32;;;;;;;4.40;3.50;;;;;;;;;;5070831;28;20212;-81
2023/10/13 14:07:58;;;;;;;11.20;2.83;;;;;;;;;;5071101;28;20204;-81
2023/10/13 14:11:13;;;;;;;12.70;3.57;;;;;;;;;;5057881;28;20201;-82
2023/10/13 14:13:38;;;;;;;4.40;3.40;;;;;;;;;;5058678;28;20209;-81
2023/10/13 14:16:16;;;;;;;7.00;3.53;;;;;;;;;;5046743;28;20659;-81
2023/10/13 14:18:43;;;;;;;10.37;5.40;;;;;;;;;;5068990;28;20209;-81
2023/10/13 14:21:10;;;;;;;11.80;4.73;;;;;;;;;;5061014;28;20280;-81
2023/10/13 14:23:38;;;;;;;12.10;4.07;;;;;;;;;;5070635;28;20248;-81
2023/10/13 14:26:09;;;;;;;5.30;3.60;;;;;;;;;;5071297;28;20208;-81
2023/10/13 14:28:36;;;;;;;7.57;3.40;;;;;;;;;;5070668;28;20197;-81
2023/10/13 14:31:09;;;;;;;7.97;3.50;;;;;;;;;;5071091;28;20201;-82
2023/10/13 14:33:36;;;;;;;6.40;3.80;;;;;;;;;;5057291;28;20207;-82
2023/10/13 14:36:04;;;;;;;13.40;6.33;;;;;;;;;;5070677;28;20240;-82
2023/10/13 14:38:31;;;;;;;10.93;6.20;;;;;;;;;;5070727;28;20219;-81
2023/10/13 14:40:58;;;;;;;4.40;2.97;;;;;;;;;;5059019;28;20677;-81
2023/10/13 14:43:27;;;;;;;12.03;3.10;;;;;;;;;;5063842;28;20308;-81
2023/10/13 14:45:53;;;;;;;7.40;4.07;;;;;;;;;;5050625;28;20293;-81
2023/10/13 14:48:23;;;;;;;6.90;3.50;;;;;;;;;;5063204;28;20210;-81
2023/10/13 14:50:50;;;;;;;8.37;3.27;;;;;;;;;;5064941;28;20259;-81
2023/10/13 14:53:19;;;;;;;8.13;3.77;;;;;;;;;;5070132;28;20216;-81
2023/10/13 14:55:46;;;;;;;5.97;3.20;;;;;;;;;;5070544;28;20205;-81
2023/10/13 14:58:16;;;;;;;5.63;3.87;;;;;;;;;;5071029;28;20197;-81
2023/10/13 15:00:45;;;;;;;7.07;3.73;;;;;;;;;;5056672;28;20213;-81
2023/10/13 15:03:12;;;;;;;16.07;12.37;;;;;;;;;;5070823;28;20224;-82
2023/10/13 15:05:43;;;;;;;58.67;40.60;;;;;;;;;;5070559;28;20212;-82
2023/10/13 15:08:09;;;;;;;49.00;34.00;;;;;;;;;;5060947;28;20198;-82
2023/10/13 15:10:36;;;;;;;19.80;12.33;;;;;;;;;;5066788;28;20210;-82
2023/10/13 15:13:05;;;;;;;20.77;12.13;;;;;;;;;;5070705;28;20429;-82
2023/10/13 15:15:32;;;;;;;14.87;5.70;;;;;;;;;;5053590;28;20198;-82
2023/10/13 15:18:00;;;;;;;6.47;4.00;;;;;;;;;;5060529;28;20209;-82
2023/10/13 15:20:27;;;;;;;14.70;5.40;;;;;;;;;;5070679;28;20292;-82
2023/10/13 15:22:59;;;;;;;21.00;16.47;;;;;;;;;;5059333;28;20658;-82
2023/10/13 15:25:31;;;;;;;9.60;4.83;;;;;;;;;;5068993;28;20208;-82
2023/10/13 15:28:02;;;;;;;7.03;3.93;;;;;;;;;;5058300;28;20202;-82
2023/10/13 15:30:43;;;;;;;5.83;3.93;;;;;;;;;;5069741;28;20232;-82
2023/10/13 15:33:12;;;;;;;7.27;3.63;;;;;;;;;;5056586;28;20700;-82
2023/10/13 15:35:42;;;;;;;8.27;3.73;;;;;;;;;;5070293;28;20675;-82
2023/10/13 15:38:10;;;;;;;9.77;2.90;;;;;;;;;;5069703;28;20201;-83
2023/10/13 15:40:42;;;;;;;9.80;3.17;;;;;;;;;;5070243;28;20201;-83
2023/10/13 15:43:09;;;;;;;6.90;3.00;;;;;;;;;;5043095;28;20320;-83
2023/10/13 15:45:42;;;;;;;6.23;3.40;;;;;;;;;;5060034;28;20213;-83
2023/10/13 15:48:10;;;;;;;8.30;3.20;;;;;;;;;;5054891;28;20201;-83
2023/10/13 15:50:40;;;;;;;9.87;3.60;;;;;;;;;;5069977;28;20225;-83
2023/10/13 15:53:07;;;;;;;16.53;4.03;;;;;;;;;;5056376;28;20637;-84
2023/10/13 15:55:37;;;;;;;7.30;3.07;;;;;;;;;;5070477;28;20244;-82
2023/10/13 15:58:07;;;;;;;10.07;3.30;;;;;;;;;;5063489;28;20256;-82
2023/10/13 16:00:35;;;;;;;3.63;2.80;;;;;;;;;;5066042;28;20209;-82
2023/10/13 16:03:08;;;;;;;6.17;3.30;;;;;;;;;;5061259;28;20225;-82
2023/10/13 16:05:40;;;;;;;11.87;3.00;;;;;;;;;;5060720;28;20240;-84
2023/10/13 16:08:11;;;;;;;8.00;2.77;;;;;;;;;;5064084;28;20285;-85
2023/10/13 16:10:38;;;;;;;3.60;3.27;;;;;;;;;;5053451;28;20236;-83
2023/10/13 16:13:09;;;;;;;9.77;2.90;;;;;;;;;;5053532;28;20206;-82
2023/10/13 16:15:42;;;;;;;5.20;2.93;;;;;;;;;;5058037;28;20216;-86
2023/10/13 16:18:09;;;;;;;8.10;3.00;;;;;;;;;;5061243;28;20205;-83
2023/10/13 16:20:38;;;;;;;5.10;2.87;;;;;;;;;;5059374;28;20208;-83
2023/10/13 16:23:06;;;;;;;5.07;2.67;;;;;;;;;;5072860;28;20212;-82
2023/10/13 16:25:33;;;;;;;6.73;3.33;;;;;;;;;;5059864;28;20201;-83
2023/10/13 16:27:59;;;;;;;3.77;2.57;;;;;;;;;;5073433;28;20216;-83
2023/10/13 16:30:28;;;;;;;7.77;3.00;;;;;;;;;;5039734;28;20217;-82
2023/10/13 16:32:55;;;;;;;4.77;2.73;;;;;;;;;;5066822;28;20250;-83
2023/10/13 16:35:22;;;;;;;3.63;2.50;;;;;;;;;;5066054;28;20212;-83
2023/10/13 16:37:51;;;;;;;8.73;3.20;;;;;;;;;;5066195;28;20201;-83
2023/10/13 16:40:19;;;;;;;5.60;3.23;;;;;;;;;;5061022;28;20200;-83
2023/10/13 16:42:47;;;;;;;9.30;3.87;;;;;;;;;;5072480;28;20201;-83
2023/10/13 16:45:20;;;;;;;159.37;98.97;;;;;;;;;;5064298;28;20222;-83
2023/10/13 16:47:47;;;;;;;39.40;24.60;;;;;;;;;;5068519;28;20216;-83
2023/10/13 16:50:16;;;;;;;20.83;14.03;;;;;;;;;;5073216;28;20228;-83
2023/10/13 16:52:47;;;;;;;10.17;6.63;;;;;;;;;;5059659;28;20208;-83
2023/10/13 16:55:17;;;;;;;12.03;5.40;;;;;;;;;;5072813;28;20292;-83
2023/10/13 16:57:44;;;;;;;11.07;6.30;;;;;;;;;;5072099;28;20672;-83
2023/10/13 17:00:12;;;;;;;8.90;5.27;;;;;;;;;;5072711;28;20258;-83
2023/10/13 17:02:42;;;;;;;11.37;4.87;;;;;;;;;;5054381;28;20238;-83
2023/10/13 17:05:10;;;;;;;9.00;4.33;;;;;;;;;;5064414;28;20225;-84
2023/10/13 17:07:37;;;;;;;31.53;22.57;;;;;;;;;;5072176;28;20205;-83
2023/10/13 17:10:04;;;;;;;88.00;78.73;;;;;;;;;;5072488;28;20213;-83